Brunswick, Georgia
Current Conditions -  °F | °C
As of 10:53 AM on Saturday 25 Oct 2014 (Local Time) from KSSI Reporting Station
Clear Clear  
Wind Chill: 66°   Ceiling: Unl
Heat Index: 66°   Visibility: 10mi
Dew Point: 52°   Wind: 9mph
Humidity: 60%   Direction: 320°NW
Pressure: 30.03"   Gusts: NA
Location:  31.15°N, 81.49°W
Report Text: KSSI 251453Z AUTO 32008KT 10SM CLR 19/11 A3003 RMK AO2 SLP167 T01890111 50007
Loading
Personal Weather Stations






























Interactive Weather Map
Tropical Storm Tracking
New forecast layout! Learn more

10-Day Weather Forecast

Advertisements
Track Severe Weather on mobile